Time;durP1;ratioP1;P1;durP2;ratioP2;P2;SDS_P1;SDS_P2;PMS_P1;PMS_P2;Temp;Humidity;BMP_temperature;BMP_pressure;BME280_temperature;BME280_humidity;BME280_pressure;Samples;Min_cycle;Max_cycle;Signal;HPM_P1;HPM_P2
2022/05/14 00:00:43;;;;;;;25.25;7.75;;;12.80;99.90;;;;;;5055850;28;20067;-60
2022/05/14 00:03:09;;;;;;;22.17;7.97;;;13.00;99.90;;;;;;5036628;28;20167;-60
2022/05/14 00:05:35;;;;;;;21.20;7.15;;;12.80;99.90;;;;;;5055671;28;20043;-60
2022/05/14 00:08:15;;;;;;;23.40;6.93;;;13.00;99.90;;;;;;5037734;28;20048;-60
2022/05/14 00:13:26;;;;;;;18.90;7.38;;;13.00;99.90;;;;;;5037750;28;20135;-59
2022/05/14 00:15:53;;;;;;;22.08;7.47;;;12.60;99.90;;;;;;5054454;28;20136;-60
2022/05/14 00:18:23;;;;;;;23.50;8.00;;;;;;;;;;5037297;28;20053;-60
2022/05/14 00:20:50;;;;;;;22.05;8.18;;;;;;;;;;5037315;28;20120;-59
2022/05/14 00:23:16;;;;;;;18.02;7.75;;;;;;;;;;5036317;28;20128;-60
2022/05/14 00:25:42;;;;;;;18.13;7.55;;;;;;;;;;5055256;28;20473;-59
2022/05/14 00:28:08;;;;;;;20.75;8.52;;;;;;;;;;5036837;28;20119;-60
2022/05/14 00:30:36;;;;;;;20.38;8.02;;;;;;;;;;5054466;28;20051;-60
2022/05/14 00:33:02;;;;;;;18.08;6.93;;;;;;;;;;5054942;28;20052;-59
2022/05/14 00:35:28;;;;;;;19.70;8.43;;;;;;;;;;5054802;28;20084;-60
2022/05/14 00:37:54;;;;;;;26.42;9.52;;;;;;;;;;5054245;28;20044;-60
2022/05/14 00:40:23;;;;;;;26.25;8.10;;;;;;;;;;5054845;28;20041;-60
2022/05/14 00:42:49;;;;;;;21.92;8.27;;;;;;;;;;5036981;28;20099;-59
2022/05/14 00:45:16;;;;;;;23.52;9.07;;;;;;;;;;5035971;28;20037;-60
2022/05/14 00:47:45;;;;;;;24.55;9.73;;;;;;;;;;5054824;28;20502;-60
2022/05/14 00:50:30;;;;;;;26.80;8.75;;;;;;;;;;5036613;28;20082;-60
2022/05/14 00:52:59;;;;;;;27.98;9.13;;;;;;;;;;5053889;28;20132;-60
2022/05/14 00:55:26;;;;;;;26.00;8.43;;;;;;;;;;5036561;28;20516;-60
2022/05/14 00:57:52;;;;;;;22.52;9.25;;;;;;;;;;5035709;28;20497;-60
2022/05/14 01:00:21;;;;;;;21.67;9.57;;;;;;;;;;5036372;28;20056;-60
2022/05/14 01:02:47;;;;;;;31.08;9.75;;;;;;;;;;5036691;28;20053;-60
2022/05/14 01:05:14;;;;;;;26.77;10.30;;;;;;;;;;5053399;28;20465;-60
2022/05/14 01:07:41;;;;;;;24.55;10.65;;;;;;;;;;5054427;28;20474;-60
2022/05/14 01:10:12;;;;;;;31.63;11.45;;;;;;;;;;5035388;28;20041;-59
2022/05/14 01:12:41;;;;;;;26.15;9.20;;;;;;;;;;5035642;28;20052;-60
2022/05/14 01:15:08;;;;;;;26.00;8.70;;;;;;;;;;5053606;28;20448;-59
2022/05/14 01:17:34;;;;;;;36.10;11.05;;;;;;;;;;5054540;28;20468;-60
2022/05/14 01:20:00;;;;;;;25.55;9.45;;;;;;;;;;5035361;28;20510;-60
2022/05/14 01:22:53;;;;;;;35.97;10.07;;;;;;;;;;5053686;28;20045;-59
2022/05/14 01:28:17;;;;;;;32.15;9.43;;;;;;;;;;4989603;28;20051;-59
2022/05/14 01:30:46;;;;;;;22.67;9.55;;;;;;;;;;5036256;28;20095;-60
2022/05/14 01:33:12;;;;;;;30.00;10.13;;;;;;;;;;5052570;28;20486;-59
2022/05/14 01:35:39;;;;;;;22.95;8.90;;;;;;;;;;5036123;28;20076;-60
2022/05/14 01:38:05;;;;;;;25.17;9.75;;;;;;;;;;5053364;28;20044;-59
2022/05/14 01:40:32;;;;;;;29.52;9.68;;;;;;;;;;5035635;28;20170;-59
2022/05/14 01:42:58;;;;;;;29.73;10.10;;;12.50;99.90;;;;;;5053359;28;20049;-60
2022/05/14 01:45:23;;;;;;;25.80;8.90;;;12.30;99.90;;;;;;5053667;28;20446;-59
2022/05/14 01:47:49;;;;;;;27.60;10.70;;;12.20;99.90;;;;;;5034820;28;20033;-59
2022/05/14 01:50:15;;;;;;;23.50;8.98;;;12.20;99.90;;;;;;5035529;28;20044;-59
2022/05/14 01:52:40;;;;;;;20.83;9.70;;;12.10;99.90;;;;;;5053663;28;20033;-59
2022/05/14 01:55:06;;;;;;;29.85;10.38;;;12.10;99.90;;;;;;5034825;28;20044;-59
2022/05/14 01:57:32;;;;;;;31.80;11.10;;;;;;;;;;5035588;28;20570;-59
2022/05/14 01:59:59;;;;;;;29.75;10.27;;;;;;;;;;5035620;28;20045;-60
2022/05/14 02:02:24;;;;;;;27.45;11.05;;;11.90;99.90;;;;;;5034520;28;20115;-59
2022/05/14 02:04:50;;;;;;;39.20;12.07;;;11.90;99.90;;;;;;5035439;28;20114;-59
2022/05/14 02:07:16;;;;;;;27.58;10.75;;;11.80;99.90;;;;;;5052970;28;20423;-60
2022/05/14 02:09:41;;;;;;;26.27;10.98;;;11.80;99.90;;;;;;5018157;28;20441;-60
2022/05/14 02:12:07;;;;;;;35.50;16.38;;;11.70;99.90;;;;;;5052786;28;20052;-59
2022/05/14 02:14:33;;;;;;;45.17;17.48;;;11.70;99.90;;;;;;5053469;28;20055;-59
2022/05/14 02:16:59;;;;;;;40.67;17.00;;;11.70;99.90;;;;;;5052210;28;20116;-59
2022/05/14 02:19:25;;;;;;;43.05;16.38;;;11.60;99.90;;;;;;5052547;28;20892;-60
2022/05/14 02:21:50;;;;;;;41.55;14.38;;;11.60;99.90;;;;;;5034145;28;20059;-60
2022/05/14 02:24:16;;;;;;;46.95;14.98;;;11.60;99.90;;;;;;5034133;28;20041;-59
2022/05/14 02:26:42;;;;;;;29.05;12.93;;;11.60;99.90;;;;;;5034928;28;20067;-59
2022/05/14 02:29:07;;;;;;;32.13;12.18;;;11.60;99.90;;;;;;5051195;28;20073;-59
2022/05/14 02:31:33;;;;;;;31.25;11.35;;;11.60;99.90;;;;;;5051035;28;20044;-59
2022/05/14 02:34:00;;;;;;;35.53;11.13;;;11.50;99.90;;;;;;5052775;28;20049;-59
2022/05/14 02:36:26;;;;;;;25.35;11.75;;;11.50;99.90;;;;;;5051853;28;20829;-59
2022/05/14 02:38:51;;;;;;;34.17;12.13;;;11.50;99.90;;;;;;5052375;28;20144;-60
2022/05/14 02:41:17;;;;;;;39.08;13.55;;;11.40;99.90;;;;;;5034404;28;20140;-59
2022/05/14 02:43:44;;;;;;;32.05;13.63;;;11.40;99.90;;;;;;5051919;28;20076;-59
2022/05/14 02:46:12;;;;;;;35.67;13.82;;;11.40;99.90;;;;;;5052202;28;20045;-59
2022/05/14 02:48:38;;;;;;;37.35;14.30;;;11.40;99.90;;;;;;5052588;28;20048;-59
2022/05/14 02:51:05;;;;;;;40.33;14.60;;;11.30;99.90;;;;;;5033601;28;20048;-59
2022/05/14 02:53:31;;;;;;;38.13;13.13;;;11.30;99.90;;;;;;5052381;28;20497;-59
2022/05/14 02:55:57;;;;;;;37.00;12.98;;;11.30;99.90;;;;;;5034387;28;20037;-59
2022/05/14 03:01:07;;;;;;;29.90;13.70;;;11.30;99.90;;;;;;5033974;28;20044;-60
2022/05/14 03:03:33;;;;;;;45.38;14.20;;;11.30;99.90;;;;;;5034787;28;20440;-59
2022/05/14 03:05:59;;;;;;;33.78;13.70;;;11.20;99.90;;;;;;5051494;28;20040;-59
2022/05/14 03:08:25;;;;;;;36.53;12.80;;;11.30;99.90;;;;;;5034034;28;20049;-59
2022/05/14 03:10:51;;;;;;;35.47;14.05;;;11.20;99.90;;;;;;5034348;28;20037;-60
2022/05/14 03:13:17;;;;;;;29.00;11.32;;;11.20;99.90;;;;;;5033322;28;20049;-59
2022/05/14 03:15:42;;;;;;;28.05;12.15;;;11.20;99.90;;;;;;5052264;28;20041;-59
2022/05/14 03:18:08;;;;;;;31.80;11.93;;;11.20;99.90;;;;;;5051337;28;20072;-59
2022/05/14 03:20:34;;;;;;;28.63;10.98;;;11.20;99.90;;;;;;5051529;28;20135;-59
2022/05/14 03:22:59;;;;;;;36.30;11.70;;;11.10;99.90;;;;;;5034022;28;20478;-59
2022/05/14 03:25:25;;;;;;;33.63;11.60;;;11.20;99.90;;;;;;5033987;28;20056;-59
2022/05/14 03:27:51;;;;;;;36.33;12.32;;;11.10;99.90;;;;;;5033018;28;20048;-59
2022/05/14 03:30:18;;;;;;;32.45;11.35;;;11.10;99.90;;;;;;5034024;28;20162;-59
2022/05/14 03:32:43;;;;;;;33.90;12.50;;;11.00;99.90;;;;;;5038377;28;20106;-59
2022/05/14 03:35:09;;;;;;;34.08;11.93;;;11.00;99.90;;;;;;5058336;28;20036;-59
2022/05/14 03:37:36;;;;;;;33.28;12.60;;;10.90;99.90;;;;;;5058769;28;20044;-59
2022/05/14 03:40:04;;;;;;;35.45;11.52;;;10.90;99.90;;;;;;5057525;28;20401;-59
2022/05/14 03:42:31;;;;;;;33.88;12.40;;;10.90;99.90;;;;;;5058367;28;20079;-59
2022/05/14 03:44:57;;;;;;;33.08;11.68;;;10.90;99.90;;;;;;5041046;28;20140;-59
2022/05/14 03:47:23;;;;;;;30.95;11.85;;;10.90;99.90;;;;;;5040072;28;20545;-59
2022/05/14 03:49:49;;;;;;;26.08;11.50;;;10.80;99.90;;;;;;5058546;28;20060;-59
2022/05/14 03:52:15;;;;;;;36.10;13.65;;;10.80;99.90;;;;;;5040275;28;20040;-60
2022/05/14 03:54:43;;;;;;;33.60;13.40;;;10.80;99.90;;;;;;5023368;28;20056;-59
2022/05/14 03:57:09;;;;;;;34.58;12.38;;;10.80;99.90;;;;;;5057932;28;20045;-60
2022/05/14 03:59:35;;;;;;;29.35;12.23;;;10.80;99.90;;;;;;5040583;28;20404;-59
2022/05/14 04:02:05;;;;;;;27.90;10.13;;;10.80;99.90;;;;;;5039525;28;20502;-60
2022/05/14 04:04:31;;;;;;;28.17;12.05;;;11.00;99.90;;;;;;5058624;28;20078;-59
2022/05/14 04:06:58;;;;;;;24.35;10.73;;;10.80;99.90;;;;;;5058296;28;20047;-59
2022/05/14 04:09:23;;;;;;;31.08;10.70;;;10.80;99.90;;;;;;5057341;28;20033;-59
2022/05/14 04:11:49;;;;;;;24.92;11.25;;;10.80;99.90;;;;;;5040161;28;20082;-60
2022/05/14 04:14:15;;;;;;;25.40;10.68;;;10.80;99.90;;;;;;5040151;28;20050;-59
2022/05/14 04:16:41;;;;;;;24.42;10.43;;;10.80;99.90;;;;;;5039650;28;20052;-59
2022/05/14 04:19:07;;;;;;;28.55;10.63;;;10.80;99.90;;;;;;5057632;28;20045;-59
2022/05/14 04:21:33;;;;;;;29.40;12.18;;;10.80;99.90;;;;;;5040602;28;20044;-59
2022/05/14 04:24:01;;;;;;;33.67;12.38;;;10.80;99.90;;;;;;5057276;28;20087;-60
2022/05/14 04:26:27;;;;;;;35.67;12.95;;;10.80;99.90;;;;;;5040120;28;20481;-59
2022/05/14 04:28:53;;;;;;;34.90;12.32;;;10.80;99.90;;;;;;5039552;28;20500;-60
2022/05/14 04:31:21;;;;;;;36.10;12.70;;;10.80;99.90;;;;;;5057894;28;20033;-59
2022/05/14 04:33:47;;;;;;;30.92;12.30;;;10.80;99.90;;;;;;5058348;28;20041;-59
2022/05/14 04:36:14;;;;;;;28.92;11.60;;;10.80;99.90;;;;;;5056910;28;20156;-59
2022/05/14 04:38:40;;;;;;;26.17;11.48;;;10.90;99.90;;;;;;5058317;28;20041;-59
2022/05/14 04:41:06;;;;;;;25.30;10.18;;;10.90;99.90;;;;;;5057463;28;20099;-59
2022/05/14 04:43:32;;;;;;;31.35;12.07;;;10.90;99.90;;;;;;5054951;28;20486;-59
2022/05/14 04:45:58;;;;;;;32.05;11.73;;;10.90;99.90;;;;;;5054904;28;20029;-59
2022/05/14 04:48:24;;;;;;;38.25;11.75;;;11.00;99.90;;;;;;5054751;28;20434;-59
2022/05/14 04:50:49;;;;;;;30.55;12.00;;;11.00;99.90;;;;;;5053568;28;20396;-59
2022/05/14 04:53:16;;;;;;;25.08;10.13;;;11.10;99.90;;;;;;5054393;28;20044;-59
2022/05/14 04:55:42;;;;;;;29.35;10.90;;;11.10;99.90;;;;;;5054779;28;20052;-59
2022/05/14 04:58:08;;;;;;;28.23;11.38;;;11.10;99.90;;;;;;5053250;28;20040;-59
2022/05/14 05:00:36;;;;;;;31.95;10.50;;;11.20;99.90;;;;;;5054603;28;20501;-59
2022/05/14 05:03:17;;;;;;;33.33;10.25;;;11.20;99.90;;;;;;5054334;28;20040;-59
2022/05/14 05:05:51;;;;;;;30.98;10.55;;;11.30;99.90;;;;;;5035913;28;20041;-60
2022/05/14 05:08:17;;;;;;;25.45;9.35;;;11.40;99.90;;;;;;5036792;28;20098;-59
2022/05/14 05:10:43;;;;;;;22.23;9.70;;;11.40;99.90;;;;;;5036818;28;20032;-60
2022/05/14 05:13:11;;;;;;;30.40;11.23;;;11.50;99.90;;;;;;5035408;28;20045;-60
2022/05/14 05:15:38;;;;;;;30.58;10.10;;;11.60;99.90;;;;;;5054296;28;20041;-59
2022/05/14 05:18:05;;;;;;;25.20;9.25;;;11.70;99.90;;;;;;5019453;28;20080;-59
2022/05/14 05:20:31;;;;;;;25.67;9.05;;;11.80;99.90;;;;;;5036678;28;20429;-59
2022/05/14 05:22:56;;;;;;;21.73;10.20;;;11.90;99.90;;;;;;5053880;28;20048;-59
2022/05/14 05:25:22;;;;;;;21.42;9.95;;;12.00;99.90;;;;;;5035432;28;20045;-59
2022/05/14 05:27:48;;;;;;;22.70;9.32;;;12.00;99.90;;;;;;5054395;28;20078;-60
2022/05/14 05:30:14;;;;;;;23.88;10.15;;;12.10;99.90;;;;;;5053901;28;20493;-59
2022/05/14 05:32:39;;;;;;;21.17;9.63;;;12.10;99.90;;;;;;5035597;28;20052;-59
2022/05/14 05:35:06;;;;;;;24.70;9.85;;;12.30;99.90;;;;;;5053535;28;20043;-60
2022/05/14 05:37:31;;;;;;;26.42;9.07;;;12.50;99.90;;;;;;5054016;28;20523;-59
2022/05/14 05:39:57;;;;;;;25.60;9.38;;;12.50;99.90;;;;;;5034941;28;20045;-60
2022/05/14 05:42:23;;;;;;;24.38;8.50;;;12.60;99.90;;;;;;5053559;28;20382;-59
2022/05/14 05:44:49;;;;;;;20.35;8.07;;;12.80;99.90;;;;;;5053715;28;20076;-60
2022/05/14 05:47:15;;;;;;;18.95;8.18;;;12.90;99.90;;;;;;5035045;28;20087;-60
2022/05/14 05:49:42;;;;;;;20.65;8.52;;;13.00;99.90;;;;;;5053705;28;20037;-60
2022/05/14 05:52:09;;;;;;;26.73;9.07;;;13.00;99.90;;;;;;5053178;28;20080;-59
2022/05/14 05:57:18;;;;;;;23.13;6.82;;;13.00;99.90;;;;;;5053447;28;20047;-60
2022/05/14 05:59:44;;;;;;;25.92;7.85;;;13.00;99.90;;;;;;5035849;28;20120;-60
2022/05/14 06:02:10;;;;;;;22.85;6.85;;;;;;;;;;5034351;28;20429;-60
2022/05/14 06:04:36;;;;;;;18.08;6.13;;;13.40;99.90;;;;;;5053393;28;20041;-59
2022/05/14 06:07:03;;;;;;;17.02;7.43;;;13.40;99.90;;;;;;5052982;28;20405;-60
2022/05/14 06:09:29;;;;;;;21.40;7.10;;;13.60;99.90;;;;;;5052265;28;20524;-59
2022/05/14 06:11:58;;;;;;;20.40;7.53;;;13.70;99.90;;;;;;5035084;28;20055;-60
2022/05/14 06:14:25;;;;;;;23.95;6.50;;;13.80;99.90;;;;;;5034749;28;20045;-59
2022/05/14 06:16:52;;;;;;;26.00;7.63;;;14.00;99.90;;;;;;5052844;28;20041;-60
2022/05/14 06:19:18;;;;;;;20.45;7.38;;;14.10;99.90;;;;;;5052576;28;20615;-60
2022/05/14 06:21:44;;;;;;;24.42;7.43;;;14.10;99.90;;;;;;5034713;28;20422;-60
2022/05/14 06:24:10;;;;;;;20.73;6.20;;;14.20;99.90;;;;;;5052662;28;20033;-60
2022/05/14 06:26:37;;;;;;;15.65;6.50;;;;;;;;;;5018907;28;20041;-60
2022/05/14 06:29:03;;;;;;;18.55;5.78;;;;;;;;;;5034120;28;20045;-60
2022/05/14 06:31:29;;;;;;;21.70;6.50;;;14.60;99.90;;;;;;5052570;28;20048;-60
2022/05/14 06:33:55;;;;;;;16.85;5.20;;;;;;;;;;5052512;28;20037;-60
2022/05/14 06:36:21;;;;;;;22.20;6.25;;;14.70;99.90;;;;;;5051736;28;20509;-59
2022/05/14 06:38:47;;;;;;;14.65;6.05;;;14.80;99.90;;;;;;5052802;28;20041;-60
2022/05/14 06:41:14;;;;;;;19.70;6.20;;;14.80;99.90;;;;;;5052239;28;20041;-59
2022/05/14 06:43:40;;;;;;;15.80;6.28;;;14.90;99.90;;;;;;5052017;28;20041;-60
2022/05/14 06:46:06;;;;;;;19.30;6.00;;;14.90;99.90;;;;;;5034238;28;20476;-60
2022/05/14 06:48:33;;;;;;;14.48;5.05;;;14.90;99.90;;;;;;5034982;28;20041;-60
2022/05/14 06:51:09;;;;;;;21.10;6.05;;;14.90;99.90;;;;;;5033735;28;20041;-60
2022/05/14 06:53:37;;;;;;;18.13;6.40;;;15.00;99.90;;;;;;5035164;28;20084;-60
2022/05/14 06:56:03;;;;;;;18.45;5.57;;;15.00;99.90;;;;;;5039968;28;20036;-60
2022/05/14 06:58:35;;;;;;;23.70;6.35;;;15.10;99.90;;;;;;5071341;28;20083;-60
2022/05/14 07:01:01;;;;;;;23.48;6.50;;;;;;;;;;5068937;28;20049;-59
2022/05/14 07:08:58;;;;;;;21.38;5.22;;;;;;;;;;5051528;28;20080;-60
2022/05/14 07:11:24;;;;;;;14.23;5.13;;;;;;;;;;5067930;28;20039;-60
2022/05/14 07:13:51;;;;;;;17.27;4.35;;;;;;;;;;5051219;28;20037;-60
2022/05/14 07:16:17;;;;;;;17.92;6.63;;;;;;;;;;5051251;28;20056;-60
2022/05/14 07:18:44;;;;;;;17.05;5.82;;;;;;;;;;5066729;28;20437;-60
2022/05/14 07:21:10;;;;;;;15.93;5.20;;;;;;;;;;5050634;28;20104;-60
2022/05/14 07:23:36;;;;;;;17.80;4.97;;;;;;;;;;5069394;28;20554;-60
2022/05/14 07:26:06;;;;;;;21.35;5.43;;;;;;;;;;5049847;28;20060;-60
2022/05/14 07:28:33;;;;;;;15.02;5.07;;;;;;;;;;5069493;28;20044;-60
2022/05/14 07:31:01;;;;;;;17.50;5.25;;;16.10;99.90;;;;;;5069166;28;20075;-60
2022/05/14 07:33:27;;;;;;;16.35;4.53;;;;;;;;;;5068381;28;20042;-60
2022/05/14 07:35:53;;;;;;;12.68;3.92;;;;;;;;;;5051490;28;20128;-60
2022/05/14 07:38:19;;;;;;;13.20;4.82;;;;;;;;;;5068651;28;20041;-60
2022/05/14 07:40:45;;;;;;;12.38;4.80;;;;;;;;;;5049762;28;20045;-60
2022/05/14 07:43:16;;;;;;;14.30;4.25;;;;;;;;;;5033780;28;20048;-60
2022/05/14 07:45:43;;;;;;;16.38;5.22;;;;;;;;;;5051218;28;20051;-60
2022/05/14 07:48:16;;;;;;;19.27;4.72;;;16.30;99.90;;;;;;5067878;28;20179;-60
2022/05/14 07:50:42;;;;;;;13.88;4.60;;;16.20;99.90;;;;;;5051165;28;20040;-60
2022/05/14 07:53:08;;;;;;;14.90;4.57;;;16.20;99.90;;;;;;5067504;28;20098;-60
2022/05/14 07:55:34;;;;;;;15.23;5.07;;;16.30;99.90;;;;;;5050794;28;20569;-60
2022/05/14 07:58:00;;;;;;;16.52;4.97;;;16.40;99.90;;;;;;5049164;28;20056;-60
2022/05/14 08:00:26;;;;;;;14.57;5.20;;;16.40;99.90;;;;;;5048642;28;20500;-60
2022/05/14 08:02:52;;;;;;;14.32;4.40;;;16.30;99.90;;;;;;5049672;28;20049;-60
2022/05/14 08:05:21;;;;;;;15.75;4.15;;;16.40;99.90;;;;;;5068209;28;20048;-60
2022/05/14 08:07:48;;;;;;;14.00;4.70;;;16.40;99.90;;;;;;5067178;28;20120;-60
2022/05/14 08:10:16;;;;;;;13.75;4.68;;;16.50;99.90;;;;;;5051714;28;20072;-60
2022/05/14 08:12:45;;;;;;;15.43;5.35;;;16.60;99.90;;;;;;5049808;28;20517;-60
2022/05/14 08:15:13;;;;;;;17.27;5.85;;;16.60;99.90;;;;;;5033246;28;20056;-60
2022/05/14 08:17:39;;;;;;;15.88;5.32;;;16.60;99.90;;;;;;5057662;28;20489;-60
2022/05/14 08:20:06;;;;;;;12.38;3.85;;;16.60;99.90;;;;;;5044735;28;20053;-60
2022/05/14 08:25:16;;;;;;;18.27;5.82;;;16.60;99.90;;;;;;5055330;28;20050;-60
2022/05/14 08:27:47;;;;;;;16.67;4.68;;;16.70;99.90;;;;;;5053703;28;20053;-60
2022/05/14 08:30:23;;;;;;;19.98;5.97;;;16.70;99.90;;;;;;5071205;28;20051;-60
2022/05/14 08:32:49;;;;;;;19.38;5.57;;;16.80;99.90;;;;;;5072798;28;20540;-60
2022/05/14 08:35:16;;;;;;;16.90;5.35;;;16.80;99.90;;;;;;5054199;28;20052;-60
2022/05/14 08:37:43;;;;;;;14.00;5.22;;;16.80;99.90;;;;;;5040207;28;20048;-59
2022/05/14 08:40:10;;;;;;;12.90;4.53;;;16.80;99.90;;;;;;5061419;28;20335;-59
2022/05/14 08:42:38;;;;;;;15.57;4.32;;;16.90;99.90;;;;;;5055062;28;20043;-59
2022/05/14 08:45:04;;;;;;;14.20;5.25;;;17.00;99.90;;;;;;5055479;28;20393;-59
2022/05/14 08:47:40;;;;;;;19.45;5.53;;;17.10;99.90;;;;;;5074790;28;20033;-59
2022/05/14 08:50:08;;;;;;;19.05;5.25;;;17.10;99.90;;;;;;5073707;28;20032;-59
2022/05/14 08:52:36;;;;;;;16.55;6.03;;;17.20;99.90;;;;;;5057146;28;20044;-59
2022/05/14 08:55:13;;;;;;;19.02;5.75;;;17.20;99.90;;;;;;5056821;28;20067;-59
2022/05/14 08:58:02;;;;;;;15.38;4.93;;;17.40;99.90;;;;;;5039590;28;20075;-59
2022/05/14 09:00:28;;;;;;;15.55;5.53;;;;;;;;;;5056601;28;20047;-59
2022/05/14 09:02:55;;;;;;;18.67;5.88;;;;;;;;;;5039522;28;20040;-59
2022/05/14 09:05:21;;;;;;;24.30;5.57;;;;;;;;;;5063881;28;20128;-60
2022/05/14 09:07:48;;;;;;;18.73;5.43;;;;;;;;;;5055811;28;20072;-59
2022/05/14 09:10:20;;;;;;;18.70;6.10;;;;;;;;;;5054329;28;20040;-60
2022/05/14 09:13:22;;;;;;;18.58;5.68;;;;;;;;;;5056358;28;20484;-59
2022/05/14 09:15:57;;;;;;;21.20;6.13;;;;;;;;;;4957302;28;20129;-59
2022/05/14 09:18:27;;;;;;;16.92;5.68;;;;;;;;;;5044562;28;20048;-60
2022/05/14 09:21:00;;;;;;;21.05;6.53;;;;;;;;;;5055174;28;20143;-60
2022/05/14 09:23:29;;;;;;;26.50;6.47;;;;;;;;;;5056428;28;20061;-60
2022/05/14 09:25:55;;;;;;;19.73;5.78;;;;;;;;;;5038568;28;20051;-60
2022/05/14 09:28:28;;;;;;;21.73;5.57;;;;;;;;;;5073941;28;20435;-60
2022/05/14 09:30:55;;;;;;;16.58;5.07;;;;;;;;;;5055476;28;20032;-61
2022/05/14 09:33:27;;;;;;;21.38;6.70;;;;;;;;;;5073325;28;20072;-60
2022/05/14 09:35:54;;;;;;;20.90;5.45;;;;;;;;;;5055624;28;20059;-60
2022/05/14 09:38:23;;;;;;;13.02;5.28;;;;;;;;;;5072984;28;20389;-60
2022/05/14 09:40:50;;;;;;;18.67;6.22;;;;;;;;;;5073406;28;20052;-60
2022/05/14 09:43:16;;;;;;;19.10;5.68;;;;;;;;;;5073686;28;20090;-62
2022/05/14 09:45:56;;;;;;;20.35;6.15;;;;;;;;;;5073128;28;20528;-60
2022/05/14 09:48:29;;;;;;;20.75;7.03;;;;;;;;;;5073682;28;20094;-60
2022/05/14 09:51:03;;;;;;;20.70;5.35;;;;;;;;;;5055854;28;20063;-60
2022/05/14 09:53:33;;;;;;;24.00;6.00;;;;;;;;;;5054831;28;20036;-62
2022/05/14 09:56:18;;;;;;;28.00;6.28;;;;;;;;;;5072985;28;20489;-60
2022/05/14 09:59:02;;;;;;;15.43;5.10;;;;;;;;;;5054179;28;20045;-60
2022/05/14 10:01:32;;;;;;;19.38;7.00;;;;;;;;;;5054408;28;20068;-60
2022/05/14 10:04:07;;;;;;;18.10;6.03;;;;;;;;;;5055378;28;20490;-61
2022/05/14 10:06:33;;;;;;;;;;;;;;;;;;5073221;28;20041;-59
2022/05/14 10:08:59;;;;;;;17.63;5.05;;;;;;;;;;5055186;28;20277;-59
2022/05/14 10:11:25;;;;;;;16.08;5.82;;;;;;;;;;5073096;28;20051;-59
2022/05/14 10:14:03;;;;;;;16.75;7.00;;;;;;;;;;5071862;28;20427;-59
2022/05/14 10:16:34;;;;;;;16.63;5.47;;;;;;;;;;5072934;28;20086;-59
2022/05/14 10:19:13;;;;;;;18.42;6.30;;;;;;;;;;5072708;28;20060;-60
2022/05/14 10:21:39;;;;;;;20.35;6.53;;;;;;;;;;5072498;28;20128;-60
2022/05/14 10:27:34;;;;;;;16.80;5.90;;;17.90;99.90;;;;;;5054904;28;20051;-60
2022/05/14 10:30:22;;;;;;;18.08;5.97;;;17.80;99.90;;;;;;5054497;28;20044;-60
2022/05/14 10:33:12;;;;;;;17.80;5.60;;;18.00;99.90;;;;;;5073096;28;20075;-60
2022/05/14 10:35:50;;;;;;;16.70;5.53;;;18.00;99.90;;;;;;5071625;28;20047;-60
2022/05/14 10:38:30;;;;;;;17.33;5.70;;;18.10;99.90;;;;;;5054581;28;20045;-60
2022/05/14 10:41:02;;;;;;;17.92;5.57;;;18.10;99.90;;;;;;5071965;28;20037;-60
2022/05/14 10:43:39;;;;;;;20.02;5.88;;;18.30;99.90;;;;;;5071581;28;20047;-60
2022/05/14 10:46:11;;;;;;;17.98;6.82;;;18.20;99.90;;;;;;5072144;28;20394;-61
2022/05/14 10:48:49;;;;;;;18.67;6.75;;;18.10;99.90;;;;;;5054606;28;20123;-60
2022/05/14 10:51:25;;;;;;;19.35;5.63;;;18.20;99.90;;;;;;5054698;28;20040;-60
2022/05/14 10:53:51;;;;;;;17.98;6.13;;;18.20;99.90;;;;;;5053174;28;20489;-60
2022/05/14 10:56:38;;;;;;;18.42;5.93;;;18.20;99.90;;;;;;5071446;28;20041;-60
2022/05/14 10:59:12;;;;;;;15.25;5.05;;;18.40;99.90;;;;;;5054110;28;20093;-60
2022/05/14 11:01:53;;;;;;;22.02;5.35;;;;;;;;;;5072839;28;20048;-61
2022/05/14 11:04:22;;;;;;;18.38;5.35;;;;;;;;;;5071282;28;20051;-61
2022/05/14 11:06:50;;;;;;;21.25;6.25;;;;;;;;;;5072098;28;20041;-61
2022/05/14 11:09:21;;;;;;;15.43;5.75;;;;;;;;;;5070847;28;20068;-61
2022/05/14 11:11:49;;;;;;;20.30;5.72;;;;;;;;;;5051316;28;20044;-61
2022/05/14 11:14:16;;;;;;;19.45;4.95;;;;;;;;;;5057394;28;20052;-61
2022/05/14 11:16:46;;;;;;;22.58;7.75;;;;;;;;;;5061848;28;20044;-61
2022/05/14 11:19:24;;;;;;;18.17;5.72;;;;;;;;;;5068775;28;20052;-61
2022/05/14 11:21:51;;;;;;;20.52;5.15;;;;;;;;;;5050449;28;20056;-61
2022/05/14 11:24:18;;;;;;;18.30;5.90;;;;;;;;;;5047590;28;20082;-61
2022/05/14 11:26:44;;;;;;;15.85;5.68;;;;;;;;;;5049791;28;20043;-61
2022/05/14 11:29:17;;;;;;;17.13;6.00;;;;;;;;;;5051183;28;20032;-61
2022/05/14 11:31:54;;;;;;;18.38;6.43;;;19.30;99.90;;;;;;5051002;28;20072;-61
2022/05/14 11:34:24;;;;;;;22.50;5.97;;;;;;;;;;5069680;28;20048;-61
2022/05/14 11:36:51;;;;;;;16.35;5.80;;;;;;;;;;5068899;28;20045;-61
2022/05/14 11:39:23;;;;;;;14.98;5.20;;;;;;;;;;5050797;28;20056;-60
2022/05/14 11:41:51;;;;;;;18.50;5.97;;;;;;;;;;5069151;28;20040;-60
2022/05/14 11:44:47;;;;;;;20.88;5.97;;;;;;;;;;5051350;28;20045;-61
2022/05/14 11:47:28;;;;;;;23.13;5.95;;;;;;;;;;5020274;28;20127;-60
2022/05/14 11:49:58;;;;;;;23.73;6.68;;;;;;;;;;5069299;28;20044;-60
2022/05/14 11:52:29;;;;;;;15.73;5.70;;;;;;;;;;5068663;28;20477;-60
2022/05/14 11:55:10;;;;;;;16.70;6.00;;;19.40;99.90;;;;;;5054745;28;20587;-60
2022/05/14 11:57:45;;;;;;;18.92;7.82;;;19.50;98.60;;;;;;5071417;28;20493;-60
2022/05/14 12:00:21;;;;;;;20.67;5.88;;;19.60;98.90;;;;;;5054159;28;20162;-60
2022/05/14 12:02:54;;;;;;;18.55;6.57;;;19.70;98.10;;;;;;5055225;28;20045;-61
2022/05/14 12:05:29;;;;;;;20.33;6.50;;;19.60;98.40;;;;;;5054896;28;20045;-61
2022/05/14 12:08:31;;;;;;;15.25;5.10;;;19.30;98.90;;;;;;5054352;28;20126;-61
2022/05/14 12:11:32;;;;;;;21.35;5.30;;;19.30;98.90;;;;;;5072755;28;20085;-61
2022/05/14 12:14:19;;;;;;;18.38;7.55;;;19.00;97.30;;;;;;5053616;28;20062;-62
2022/05/14 12:16:54;;;;;;;14.90;5.35;;;19.00;96.80;;;;;;5072809;28;20120;-60
2022/05/14 12:19:23;;;;;;;25.35;6.47;;;19.00;97.40;;;;;;5071899;28;20754;-60
2022/05/14 12:22:01;;;;;;;15.88;5.68;;;19.10;97.20;;;;;;5035794;28;20060;-61
2022/05/14 12:24:55;;;;;;;18.08;6.78;;;19.50;99.90;;;;;;5072172;28;20059;-61
2022/05/14 12:27:20;;;;;;;18.17;5.18;;;19.80;96.40;;;;;;5059296;28;20064;-63
2022/05/14 12:29:52;;;;;;;18.00;6.75;;;19.90;95.60;;;;;;5052713;28;20045;-60
2022/05/14 12:35:14;;;;;;;23.65;5.80;;;20.10;95.20;;;;;;5040892;28;20060;-62
2022/05/14 12:37:42;;;;;;;21.02;7.07;;;20.00;94.30;;;;;;5068548;28;20040;-62
2022/05/14 12:40:17;;;;;;;16.73;5.57;;;19.90;94.80;;;;;;5053234;28;20427;-61
2022/05/14 12:42:44;;;;;;;24.23;7.30;;;20.00;93.90;;;;;;5036471;28;20052;-61
2022/05/14 12:45:11;;;;;;;23.08;6.20;;;19.90;93.40;;;;;;5071468;28;20405;-61
2022/05/14 12:47:38;;;;;;;16.35;5.10;;;19.80;94.10;;;;;;5057674;28;20040;-61
2022/05/14 12:50:20;;;;;;;12.63;4.70;;;19.70;94.50;;;;;;5058196;28;20116;-61
2022/05/14 12:52:56;;;;;;;15.50;5.22;;;19.70;94.70;;;;;;5054191;28;20056;-61
2022/05/14 12:55:24;;;;;;;20.05;6.15;;;19.60;93.80;;;;;;5038073;28;20049;-61
2022/05/14 12:57:51;;;;;;;18.17;5.70;;;19.30;94.50;;;;;;5031738;28;20049;-60
2022/05/14 13:00:19;;;;;;;19.35;5.60;;;19.10;95.10;;;;;;5051828;28;20055;-61
2022/05/14 13:02:55;;;;;;;14.55;5.07;;;19.00;95.60;;;;;;5067913;28;20578;-61
2022/05/14 13:05:32;;;;;;;17.67;5.88;;;19.10;99.90;;;;;;5070254;28;20409;-62
2022/05/14 13:08:09;;;;;;;19.02;6.07;;;19.00;99.90;;;;;;5053486;28;20077;-61
2022/05/14 13:10:37;;;;;;;16.55;6.05;;;19.10;99.90;;;;;;5052771;28;20492;-61
2022/05/14 13:13:06;;;;;;;17.42;5.80;;;19.10;99.90;;;;;;5052576;28;20159;-61
2022/05/14 13:15:43;;;;;;;14.02;5.55;;;19.00;99.90;;;;;;5071779;28;20165;-61
2022/05/14 13:18:19;;;;;;;20.35;5.60;;;19.20;99.90;;;;;;5070127;28;20496;-60
2022/05/14 13:20:45;;;;;;;18.70;5.72;;;18.70;97.00;;;;;;5071359;28;20063;-60
2022/05/14 13:23:17;;;;;;;17.48;5.45;;;19.00;97.30;;;;;;5053064;28;20052;-61
2022/05/14 13:25:56;;;;;;;18.35;5.00;;;19.50;95.50;;;;;;5052059;28;20054;-60
2022/05/14 13:28:31;;;;;;;14.35;5.50;;;19.40;95.40;;;;;;5070720;28;20436;-61
2022/05/14 13:30:58;;;;;;;19.73;6.05;;;19.50;95.20;;;;;;5062155;28;20316;-62
2022/05/14 13:33:27;;;;;;;19.45;6.13;;;19.40;95.00;;;;;;5069779;28;20497;-61
2022/05/14 13:39:04;;;;;;;19.10;6.03;;;19.20;96.90;;;;;;5052483;28;20113;-62
2022/05/14 13:41:37;;;;;;;16.10;5.93;;;19.40;96.30;;;;;;5052153;28;20099;-61
2022/05/14 13:44:05;;;;;;;14.90;5.10;;;19.50;96.90;;;;;;5053272;28;20036;-61
2022/05/14 13:46:43;;;;;;;12.93;5.63;;;19.30;96.00;;;;;;5052783;28;20394;-60